createdAt,value
2023-04-29T00:01:17.206Z,7.52
2023-04-29T00:03:43.708Z,7.40
2023-04-29T00:06:10.288Z,7.22
2023-04-29T00:08:36.716Z,7.05
2023-04-29T00:11:03.202Z,6.97
2023-04-29T00:13:29.556Z,6.87
2023-04-29T00:15:55.894Z,6.80
2023-04-29T00:18:22.239Z,6.68
2023-04-29T00:20:48.583Z,6.69
2023-04-29T00:23:14.914Z,6.67
2023-04-29T00:25:41.267Z,6.71
2023-04-29T00:28:07.598Z,6.69
2023-04-29T00:30:33.951Z,6.69
2023-04-29T00:33:00.360Z,6.72
2023-04-29T00:35:26.727Z,6.76
2023-04-29T00:37:53.058Z,6.78
2023-04-29T00:40:19.425Z,6.75
2023-04-29T00:42:45.773Z,6.76
2023-04-29T00:45:12.108Z,6.73
2023-04-29T00:47:38.742Z,6.71
2023-04-29T00:50:06.093Z,6.70
2023-04-29T00:52:32.449Z,6.74
2023-04-29T00:54:58.792Z,6.70
2023-04-29T00:57:25.367Z,6.70
2023-04-29T00:59:51.912Z,6.70
2023-04-29T01:02:18.387Z,6.75
2023-04-29T01:04:44.782Z,6.79
2023-04-29T01:07:21.373Z,6.77
2023-04-29T01:10:03.574Z,6.79
2023-04-29T01:12:35.882Z,6.77
2023-04-29T01:15:05.459Z,6.78
2023-04-29T01:17:36.572Z,6.78
2023-04-29T01:20:03.024Z,6.82
2023-04-29T01:22:29.390Z,6.86
2023-04-29T01:24:55.737Z,6.87
2023-04-29T01:27:30.275Z,6.84
2023-04-29T01:30:02.814Z,6.91
2023-04-29T01:32:34.843Z,6.91
2023-04-29T01:35:36.535Z,6.93
2023-04-29T01:38:23.478Z,6.93
2023-04-29T01:41:22.827Z,6.94
2023-04-29T01:43:50.834Z,6.93
2023-04-29T01:46:17.542Z,6.87
2023-04-29T01:48:44.112Z,6.85
2023-04-29T01:51:10.469Z,6.85
2023-04-29T01:53:36.809Z,6.84
2023-04-29T01:56:03.151Z,6.84
2023-04-29T01:58:29.511Z,6.82
2023-04-29T02:00:55.926Z,6.83
2023-04-29T02:03:22.415Z,6.81
2023-04-29T02:05:48.786Z,6.84
2023-04-29T02:08:15.125Z,6.82
2023-04-29T02:10:41.489Z,6.82
2023-04-29T02:13:07.845Z,6.80
2023-04-29T02:15:34.203Z,6.81
2023-04-29T02:18:00.581Z,6.80
2023-04-29T02:20:26.974Z,6.81
2023-04-29T02:22:53.367Z,6.81
2023-04-29T02:25:19.710Z,6.80
2023-04-29T02:27:46.087Z,6.84
2023-04-29T02:30:12.490Z,6.87
2023-04-29T02:32:38.880Z,6.87
2023-04-29T02:35:05.806Z,6.88
2023-04-29T02:37:32.145Z,6.87
2023-04-29T02:39:58.482Z,6.84
2023-04-29T02:42:24.833Z,6.85
2023-04-29T02:44:51.163Z,6.81
2023-04-29T02:47:17.515Z,6.82
2023-04-29T02:49:43.850Z,6.79
2023-04-29T02:52:10.191Z,6.76
2023-04-29T02:54:36.551Z,6.75
2023-04-29T02:57:02.905Z,6.79
2023-04-29T02:59:29.240Z,6.84
2023-04-29T03:01:55.594Z,6.88
2023-04-29T03:04:22.090Z,6.84
2023-04-29T03:06:48.724Z,6.83
2023-04-29T03:09:15.066Z,6.84
2023-04-29T03:11:41.416Z,6.84
2023-04-29T03:14:07.765Z,6.84
2023-04-29T03:16:34.179Z,6.87
2023-04-29T03:19:00.603Z,6.92
2023-04-29T03:21:26.956Z,6.93
2023-04-29T03:23:53.295Z,6.96
2023-04-29T03:26:19.695Z,6.99
2023-04-29T03:28:46.084Z,7.02
2023-04-29T03:31:12.490Z,7.05
2023-04-29T03:33:38.840Z,7.06
2023-04-29T03:36:05.420Z,7.07
2023-04-29T03:38:31.745Z,7.08
2023-04-29T03:40:58.123Z,7.10
2023-04-29T03:43:24.478Z,7.10
2023-04-29T03:45:50.894Z,7.12
2023-04-29T03:48:17.245Z,7.05
2023-04-29T03:50:43.630Z,7.01
2023-04-29T03:53:09.970Z,7.08
2023-04-29T03:55:36.310Z,7.11
2023-04-29T03:58:02.664Z,7.12
2023-04-29T04:00:30.166Z,7.12
2023-04-29T04:02:57.313Z,7.20
2023-04-29T04:05:23.734Z,7.14
2023-04-29T04:07:50.081Z,7.17
2023-04-29T04:10:16.445Z,7.20
2023-04-29T04:12:44.264Z,7.18
2023-04-29T04:15:10.839Z,7.18
2023-04-29T04:17:37.217Z,7.22
2023-04-29T04:20:03.731Z,7.23
2023-04-29T04:22:30.073Z,7.23
2023-04-29T04:24:56.402Z,7.27
2023-04-29T04:27:22.815Z,7.26
2023-04-29T04:29:53.684Z,7.29
2023-04-29T04:32:23.681Z,7.39
2023-04-29T04:34:50.560Z,7.46
2023-04-29T04:37:16.894Z,7.55
2023-04-29T04:39:43.342Z,7.60
2023-04-29T04:42:09.684Z,7.58
2023-04-29T04:44:36.020Z,7.65
2023-04-29T04:47:02.381Z,7.69
2023-04-29T04:49:28.720Z,7.74
2023-04-29T04:51:55.077Z,7.81
2023-04-29T04:54:21.419Z,7.88
2023-04-29T04:56:47.767Z,7.93
2023-04-29T04:59:14.199Z,7.99
2023-04-29T05:01:40.637Z,8.02
2023-04-29T05:04:07.188Z,8.04
2023-04-29T05:06:33.596Z,7.99
2023-04-29T05:08:59.951Z,8.08
2023-04-29T05:11:26.311Z,8.12
2023-04-29T05:13:52.663Z,8.10
2023-04-29T05:16:19.112Z,8.18
2023-04-29T05:18:45.481Z,8.23
2023-04-29T05:21:12.480Z,8.29
2023-04-29T05:23:38.833Z,8.27
2023-04-29T05:26:05.211Z,8.23
2023-04-29T05:28:31.550Z,8.28
2023-04-29T05:30:57.954Z,8.38
2023-04-29T05:33:24.328Z,8.29
2023-04-29T05:35:50.696Z,8.25
2023-04-29T05:38:17.051Z,8.27
2023-04-29T05:40:43.411Z,8.37
2023-04-29T05:43:09.761Z,8.40
2023-04-29T05:45:36.125Z,8.40
2023-04-29T05:48:02.521Z,8.43
2023-04-29T05:50:28.928Z,8.32
2023-04-29T05:52:55.275Z,8.54
2023-04-29T05:55:21.644Z,8.54
2023-04-29T05:57:47.998Z,8.57
2023-04-29T06:00:14.406Z,8.61
2023-04-29T06:02:50.627Z,8.57
2023-04-29T06:05:24.534Z,8.60
2023-04-29T06:07:51.103Z,8.56
2023-04-29T06:10:17.573Z,8.50
2023-04-29T06:12:43.939Z,8.53
2023-04-29T06:15:10.528Z,8.60
2023-04-29T06:17:36.931Z,8.66
2023-04-29T06:20:03.496Z,8.82
2023-04-29T06:22:29.867Z,9.16
2023-04-29T06:24:56.224Z,9.25
2023-04-29T06:27:22.596Z,9.04
2023-04-29T06:29:49.098Z,9.08
2023-04-29T06:32:15.449Z,9.19
2023-04-29T06:34:41.797Z,9.41
2023-04-29T06:37:08.154Z,9.64
2023-04-29T06:39:34.493Z,10.13
2023-04-29T06:42:00.849Z,10.63
2023-04-29T06:44:27.187Z,11.24
2023-04-29T06:46:53.563Z,11.78
2023-04-29T06:49:20.194Z,11.73
2023-04-29T06:51:46.546Z,11.79
2023-04-29T06:54:12.889Z,11.77
2023-04-29T06:56:39.243Z,12.13
2023-04-29T06:59:05.618Z,12.42
2023-04-29T07:01:32.033Z,12.38
2023-04-29T07:03:58.681Z,12.48
2023-04-29T07:06:25.164Z,12.35
2023-04-29T07:08:51.536Z,12.24
2023-04-29T07:11:17.906Z,12.67
2023-04-29T07:13:44.252Z,12.80
2023-04-29T07:16:17.090Z,12.89
2023-04-29T07:18:43.741Z,12.97
2023-04-29T07:21:10.099Z,13.16
2023-04-29T07:23:36.444Z,12.92
2023-04-29T07:26:15.815Z,12.92
2023-04-29T07:28:42.412Z,12.78
2023-04-29T07:31:08.880Z,12.91
2023-04-29T07:33:35.419Z,13.68
2023-04-29T07:36:02.273Z,13.39
2023-04-29T07:38:28.687Z,13.77
2023-04-29T07:40:55.095Z,13.22
2023-04-29T07:43:21.482Z,13.20
2023-04-29T07:45:48.313Z,13.28
2023-04-29T07:48:14.669Z,13.60
2023-04-29T07:50:41.020Z,14.23
2023-04-29T07:53:07.388Z,14.67
2023-04-29T07:55:33.784Z,14.58
2023-04-29T07:58:00.633Z,14.18
2023-04-29T08:00:27.120Z,14.17
2023-04-29T08:02:54.159Z,14.61
2023-04-29T08:05:20.867Z,14.26
2023-04-29T08:07:48.038Z,14.60
2023-04-29T08:10:14.792Z,14.90
2023-04-29T08:12:41.176Z,14.17
2023-04-29T08:15:09.670Z,14.18
2023-04-29T08:17:36.369Z,14.09
2023-04-29T08:20:02.876Z,14.29
2023-04-29T08:22:29.290Z,14.37
2023-04-29T08:24:55.627Z,14.35
2023-04-29T08:27:21.980Z,14.39
2023-04-29T08:29:48.361Z,14.93
2023-04-29T08:32:14.728Z,14.66
2023-04-29T08:34:41.076Z,14.55
2023-04-29T08:37:07.432Z,14.82
2023-04-29T08:39:33.783Z,15.03
2023-04-29T08:42:00.246Z,14.86
2023-04-29T08:44:26.681Z,14.44
2023-04-29T08:46:53.064Z,14.48
2023-04-29T08:49:19.401Z,14.63
2023-04-29T08:51:48.814Z,14.41
2023-04-29T08:54:15.162Z,14.37
2023-04-29T08:56:43.700Z,14.69
2023-04-29T08:59:10.057Z,15.08
2023-04-29T09:01:36.629Z,14.23
2023-04-29T09:04:44.958Z,14.69
2023-04-29T09:07:11.352Z,14.79
2023-04-29T09:09:37.694Z,14.85
2023-04-29T09:12:04.051Z,14.79
2023-04-29T09:14:30.429Z,15.16
2023-04-29T09:16:56.816Z,15.16
2023-04-29T09:19:32.916Z,14.95
2023-04-29T09:21:59.592Z,14.05
2023-04-29T09:24:26.647Z,14.75
2023-04-29T09:26:53.102Z,14.85
2023-04-29T09:29:19.451Z,14.32
2023-04-29T09:31:46.001Z,14.76
2023-04-29T09:34:12.513Z,15.43
2023-04-29T09:36:42.668Z,14.88
2023-04-29T09:39:09.587Z,14.08
2023-04-29T09:41:35.972Z,14.14
2023-04-29T09:44:06.005Z,14.61
2023-04-29T09:46:35.653Z,14.75
2023-04-29T09:49:03.168Z,14.78
2023-04-29T09:51:29.532Z,15.16
2023-04-29T09:53:55.882Z,14.95
2023-04-29T09:56:22.232Z,15.01
2023-04-29T09:58:48.574Z,14.83
2023-04-29T10:01:14.952Z,15.60
2023-04-29T10:03:41.420Z,14.51
2023-04-29T10:06:07.962Z,14.43
2023-04-29T10:08:34.438Z,14.60
2023-04-29T10:11:01.961Z,14.73
2023-04-29T10:13:28.525Z,14.87
2023-04-29T10:16:11.033Z,15.02
2023-04-29T10:18:37.667Z,15.39
2023-04-29T10:21:07.166Z,15.35
2023-04-29T10:23:33.662Z,14.84
2023-04-29T10:26:00.713Z,13.90
2023-04-29T10:28:27.052Z,14.07
2023-04-29T10:30:54.093Z,14.58
2023-04-29T10:33:20.644Z,15.18
2023-04-29T10:35:47.029Z,15.14
2023-04-29T10:38:18.497Z,14.92
2023-04-29T10:40:45.500Z,15.06
2023-04-29T10:43:11.854Z,15.09
2023-04-29T10:45:38.515Z,15.46
2023-04-29T10:48:04.793Z,14.86
2023-04-29T10:50:49.208Z,14.86
2023-04-29T10:53:16.863Z,14.84
2023-04-29T10:55:43.219Z,15.09
2023-04-29T10:58:40.432Z,14.95
2023-04-29T11:01:07.011Z,14.73
2023-04-29T11:03:52.002Z,14.93
2023-04-29T11:06:18.620Z,14.98
2023-04-29T11:08:44.967Z,14.94
2023-04-29T11:11:12.860Z,15.18
2023-04-29T11:13:39.806Z,14.62
2023-04-29T11:16:10.195Z,14.61
2023-04-29T11:18:37.701Z,15.23
2023-04-29T11:21:06.978Z,15.09
2023-04-29T11:23:39.539Z,15.58
2023-04-29T11:26:05.900Z,15.73
2023-04-29T11:28:32.633Z,15.49
2023-04-29T11:30:59.078Z,15.56
2023-04-29T11:33:26.108Z,15.87
2023-04-29T11:35:52.475Z,15.47
2023-04-29T11:38:21.005Z,14.94
2023-04-29T11:40:50.481Z,14.82
2023-04-29T11:43:17.736Z,14.89
2023-04-29T11:45:47.344Z,15.11
2023-04-29T11:48:24.103Z,15.20
2023-04-29T11:50:51.966Z,15.18
2023-04-29T11:53:21.861Z,15.18
2023-04-29T11:55:48.220Z,15.26
2023-04-29T11:58:14.947Z,15.30
2023-04-29T12:00:41.311Z,15.72
2023-04-29T12:03:14.466Z,14.97
2023-04-29T12:05:46.705Z,15.11
2023-04-29T12:08:13.181Z,15.46
2023-04-29T12:10:39.548Z,15.60
2023-04-29T12:13:06.229Z,15.37
2023-04-29T12:15:33.312Z,15.61
2023-04-29T12:18:00.510Z,15.75
2023-04-29T12:20:26.876Z,15.67
2023-04-29T12:22:53.337Z,15.30
2023-04-29T12:25:19.695Z,15.49
2023-04-29T12:27:46.043Z,15.58
2023-04-29T12:30:12.599Z,15.23
2023-04-29T12:32:39.270Z,15.00
2023-04-29T12:35:05.937Z,14.72
2023-04-29T12:37:33.157Z,14.52
2023-04-29T12:39:59.500Z,14.31
2023-04-29T12:42:32.514Z,14.80
2023-04-29T12:44:58.900Z,14.60
2023-04-29T12:47:25.322Z,14.73
2023-04-29T12:49:51.674Z,14.85
2023-04-29T12:52:18.032Z,14.80
2023-04-29T12:54:44.434Z,15.05
2023-04-29T12:57:11.945Z,14.93
2023-04-29T12:59:38.456Z,14.48
2023-04-29T13:02:06.614Z,14.89
2023-04-29T13:04:34.042Z,14.70
2023-04-29T13:07:00.566Z,14.11
2023-04-29T13:09:27.041Z,14.32
2023-04-29T13:11:53.433Z,14.49
2023-04-29T13:14:20.037Z,14.18
2023-04-29T13:16:47.007Z,14.56
2023-04-29T13:21:44.283Z,14.33
2023-04-29T13:24:10.656Z,14.06
2023-04-29T13:26:37.009Z,13.90
2023-04-29T13:29:03.366Z,14.16
2023-04-29T13:31:30.247Z,14.45
2023-04-29T13:33:57.323Z,14.45
2023-04-29T13:36:23.774Z,14.34
2023-04-29T13:38:55.068Z,14.04
2023-04-29T13:41:22.079Z,14.13
2023-04-29T13:43:50.777Z,14.21
2023-04-29T13:46:20.695Z,14.22
2023-04-29T14:01:44.205Z,14.49
2023-04-29T14:04:03.492Z,14.39
2023-04-29T14:06:29.935Z,14.56
2023-04-29T14:08:56.294Z,14.34
2023-04-29T14:11:22.708Z,14.24
2023-04-29T14:13:49.080Z,14.37
2023-04-29T14:16:15.697Z,14.58
2023-04-29T14:18:42.122Z,14.46
2023-04-29T14:21:08.518Z,14.41
2023-04-29T14:23:34.931Z,14.59
2023-04-29T14:28:30.549Z,14.41
2023-04-29T14:30:56.940Z,14.46
2023-04-29T14:33:23.319Z,14.34
2023-04-29T14:35:49.665Z,14.43
2023-04-29T14:38:16.004Z,14.42
2023-04-29T14:40:42.366Z,14.56
2023-04-29T14:43:08.714Z,14.76
2023-04-29T14:45:35.202Z,14.36
2023-04-29T14:48:01.565Z,13.59
2023-04-29T14:50:27.976Z,13.85
2023-04-29T14:52:54.315Z,13.87
2023-04-29T14:55:20.660Z,13.85
2023-04-29T14:57:47.003Z,13.47
2023-04-29T15:00:14.126Z,13.52
2023-04-29T15:02:40.559Z,13.51
2023-04-29T15:05:07.031Z,13.57
2023-04-29T15:07:33.380Z,13.52
2023-04-29T15:09:59.740Z,13.53
2023-04-29T15:12:26.074Z,13.44
2023-04-29T15:14:52.579Z,13.33
2023-04-29T15:17:19.112Z,13.12
2023-04-29T15:19:45.463Z,13.21
2023-04-29T15:22:11.795Z,13.17
2023-04-29T15:24:38.155Z,13.25
2023-04-29T15:27:04.493Z,13.09
2023-04-29T15:29:30.861Z,13.02
2023-04-29T15:31:57.287Z,13.03
2023-04-29T15:34:23.697Z,13.24
2023-04-29T15:36:50.052Z,13.16
2023-04-29T15:39:16.415Z,13.34
2023-04-29T15:41:42.755Z,13.33
2023-04-29T15:44:09.104Z,13.31
2023-04-29T15:46:35.444Z,13.44
2023-04-29T15:49:01.800Z,13.30
2023-04-29T15:51:28.153Z,13.29
2023-04-29T15:53:54.506Z,13.27
2023-04-29T15:56:20.885Z,13.27
2023-04-29T15:58:47.243Z,12.90
2023-04-29T16:01:13.618Z,12.93
2023-04-29T16:03:46.818Z,12.97
2023-04-29T16:06:13.304Z,12.89
2023-04-29T16:08:41.016Z,12.91
2023-04-29T16:11:07.358Z,13.03
2023-04-29T16:13:36.124Z,13.03
2023-04-29T16:16:02.794Z,13.12
2023-04-29T16:18:29.150Z,13.20
2023-04-29T16:20:55.501Z,13.14
2023-04-29T16:23:21.935Z,13.00
2023-04-29T16:25:48.274Z,12.88
2023-04-29T16:28:14.625Z,12.76
2023-04-29T16:30:40.993Z,12.88
2023-04-29T16:33:07.348Z,12.93
2023-04-29T16:35:33.708Z,12.83
2023-04-29T16:38:00.058Z,12.73
2023-04-29T16:40:26.494Z,12.66
2023-04-29T16:42:52.845Z,12.58
2023-04-29T16:45:20.475Z,12.73
2023-04-29T16:47:48.049Z,12.52
2023-04-29T16:50:14.455Z,12.45
2023-04-29T16:52:40.820Z,12.44
2023-04-29T16:55:07.419Z,12.38
2023-04-29T16:57:33.772Z,12.39
2023-04-29T17:00:00.151Z,12.32
2023-04-29T17:02:26.569Z,12.22
2023-04-29T17:04:53.055Z,12.13
2023-04-29T17:07:19.566Z,12.19
2023-04-29T17:09:46.471Z,12.10
2023-04-29T17:12:13.210Z,12.17
2023-04-29T17:14:40.362Z,12.20
2023-04-29T17:17:06.892Z,12.04
2023-04-29T17:19:33.367Z,12.00
2023-04-29T17:21:59.721Z,11.89
2023-04-29T17:24:26.075Z,11.79
2023-04-29T17:26:52.415Z,11.78
2023-04-29T17:29:18.795Z,11.78
2023-04-29T17:31:45.354Z,11.74
2023-04-29T17:34:12.396Z,11.56
2023-04-29T17:36:38.740Z,11.38
2023-04-29T17:39:05.089Z,11.38
2023-04-29T17:41:32.702Z,11.38
2023-04-29T17:43:59.060Z,11.27
2023-04-29T17:46:25.499Z,11.16
2023-04-29T17:48:51.909Z,11.07
2023-04-29T17:51:18.258Z,11.02
2023-04-29T17:53:44.607Z,10.91
2023-04-29T17:56:10.960Z,10.84
2023-04-29T17:58:37.316Z,10.77
2023-04-29T18:01:04.703Z,10.69
2023-04-29T18:03:31.240Z,10.61
2023-04-29T18:05:57.758Z,10.55
2023-04-29T18:08:24.103Z,10.56
2023-04-29T18:10:50.440Z,10.42
2023-04-29T18:13:16.788Z,10.32
2023-04-29T18:15:43.143Z,10.39
2023-04-29T18:18:09.540Z,10.33
2023-04-29T18:20:35.915Z,10.27
2023-04-29T18:23:02.266Z,10.35
2023-04-29T18:25:28.627Z,10.23
2023-04-29T18:28:03.517Z,10.15
2023-04-29T18:30:39.879Z,10.13
2023-04-29T18:33:06.252Z,10.03
2023-04-29T18:35:32.614Z,9.86
2023-04-29T18:37:59.096Z,9.90
2023-04-29T18:40:25.432Z,10.00
2023-04-29T18:42:51.766Z,9.97
2023-04-29T18:45:18.125Z,9.85
2023-04-29T18:47:44.511Z,9.85
2023-04-29T18:50:10.919Z,9.72
2023-04-29T18:52:37.276Z,9.70
2023-04-29T18:55:03.695Z,9.69
2023-04-29T18:57:30.033Z,9.65
2023-04-29T18:59:56.520Z,9.52
2023-04-29T19:02:22.952Z,9.48
2023-04-29T19:04:49.390Z,9.35
2023-04-29T19:07:15.751Z,9.39
2023-04-29T19:09:42.107Z,9.43
2023-04-29T19:12:08.456Z,9.31
2023-04-29T19:14:34.802Z,9.30
2023-04-29T19:17:01.201Z,9.25
2023-04-29T19:19:27.570Z,9.13
2023-04-29T19:21:53.940Z,9.06
2023-04-29T19:24:20.295Z,9.18
2023-04-29T19:26:46.636Z,9.17
2023-04-29T19:29:13.428Z,9.20
2023-04-29T19:31:39.822Z,9.08
2023-04-29T19:34:06.222Z,9.01
2023-04-29T19:36:32.565Z,9.02
2023-04-29T19:38:58.932Z,9.17
2023-04-29T19:41:25.288Z,9.07
2023-04-29T19:43:51.634Z,8.89
2023-04-29T19:46:18.042Z,9.05
2023-04-29T19:48:44.418Z,8.93
2023-04-29T19:51:10.774Z,8.88
2023-04-29T19:53:37.149Z,8.93
2023-04-29T19:56:03.527Z,9.13
2023-04-29T19:58:29.869Z,9.04
2023-04-29T20:00:56.260Z,8.99
2023-04-29T20:03:22.721Z,8.99
2023-04-29T20:05:49.166Z,8.82
2023-04-29T20:08:15.518Z,8.90
2023-04-29T20:10:41.903Z,8.85
2023-04-29T20:13:08.275Z,9.02
2023-04-29T20:15:34.744Z,8.75
2023-04-29T20:18:01.099Z,8.81
2023-04-29T20:20:27.492Z,8.85
2023-04-29T20:22:53.836Z,8.68
2023-04-29T20:25:20.190Z,8.54
2023-04-29T20:27:46.535Z,8.53
2023-04-29T20:30:12.949Z,8.54
2023-04-29T20:32:39.453Z,8.47
2023-04-29T20:35:06.056Z,8.48
2023-04-29T20:37:32.398Z,8.57
2023-04-29T20:39:58.775Z,8.30
2023-04-29T20:42:25.125Z,8.28
2023-04-29T20:44:51.489Z,8.08
2023-04-29T20:47:17.837Z,8.11
2023-04-29T20:49:44.191Z,7.93
2023-04-29T20:52:10.539Z,7.96
2023-04-29T20:54:36.908Z,7.82
2023-04-29T20:57:03.288Z,7.93
2023-04-29T20:59:29.639Z,7.82
2023-04-29T21:01:56.128Z,7.91
2023-04-29T21:04:22.665Z,8.05
2023-04-29T21:06:49.063Z,7.85
2023-04-29T21:09:15.418Z,7.89
2023-04-29T21:11:41.758Z,7.88
2023-04-29T21:14:08.095Z,7.52
2023-04-29T21:16:34.444Z,7.36
2023-04-29T21:19:00.782Z,7.37
2023-04-29T21:21:27.141Z,7.52
2023-04-29T21:23:53.474Z,7.40
2023-04-29T21:26:19.866Z,7.40
2023-04-29T21:28:46.206Z,7.27
2023-04-29T21:31:12.574Z,7.11
2023-04-29T21:33:38.945Z,7.18
2023-04-29T21:36:05.327Z,7.17
2023-04-29T21:38:31.657Z,7.19
2023-04-29T21:40:58.025Z,7.09
2023-04-29T21:43:24.363Z,7.07
2023-04-29T21:45:50.712Z,7.19
2023-04-29T21:48:17.891Z,7.15
2023-04-29T21:50:44.333Z,7.22
2023-04-29T21:53:13.784Z,7.41
2023-04-29T21:55:41.689Z,7.23
2023-04-29T21:58:08.050Z,7.06
2023-04-29T22:00:34.424Z,6.95
2023-04-29T22:03:01.186Z,6.85
2023-04-29T22:05:27.572Z,6.77
2023-04-29T22:07:53.987Z,6.79
2023-04-29T22:10:20.334Z,6.68
2023-04-29T22:12:46.682Z,6.65
2023-04-29T22:15:26.883Z,6.55
2023-04-29T22:17:54.428Z,6.51
2023-04-29T22:20:26.800Z,6.56
2023-04-29T22:23:06.385Z,6.50
2023-04-29T22:25:34.950Z,6.38
2023-04-29T22:31:01.355Z,6.44
2023-04-29T22:33:35.531Z,6.17
2023-04-29T22:39:04.881Z,6.23
2023-04-29T22:41:38.753Z,6.17
2023-04-29T22:44:10.121Z,6.14
2023-04-29T22:46:36.531Z,6.17
2023-04-29T22:49:20.964Z,6.25
2023-04-29T22:51:55.039Z,6.12
2023-04-29T22:57:34.494Z,6.10
2023-04-29T23:02:43.671Z,5.84
2023-04-29T23:05:10.094Z,6.00
2023-04-29T23:07:36.431Z,5.89
2023-04-29T23:10:02.788Z,5.89
2023-04-29T23:12:29.123Z,5.80
2023-04-29T23:14:55.496Z,5.96
2023-04-29T23:17:21.854Z,5.90
2023-04-29T23:19:48.204Z,5.77
2023-04-29T23:22:14.545Z,5.84
2023-04-29T23:24:40.897Z,5.85
2023-04-29T23:27:07.237Z,5.88
2023-04-29T23:29:33.566Z,5.88
2023-04-29T23:32:00.166Z,5.87
2023-04-29T23:34:26.503Z,5.80
2023-04-29T23:36:52.882Z,5.59
2023-04-29T23:39:19.225Z,5.58
2023-04-29T23:41:45.590Z,5.76
2023-04-29T23:44:11.956Z,5.70
2023-04-29T23:46:38.379Z,5.61
2023-04-29T23:49:04.748Z,5.72
2023-04-29T23:51:31.105Z,5.78
2023-04-29T23:53:57.457Z,5.66
2023-04-29T23:56:23.805Z,5.59
2023-04-29T23:58:50.156Z,5.63
